createdAt,value
2023-05-21T00:00:41.847Z,100120.44
2023-05-21T00:03:14.308Z,100122.16
2023-05-21T00:05:45.172Z,100121.38
2023-05-21T00:08:14.452Z,100120.66
2023-05-21T00:10:42.754Z,100123.16
2023-05-21T00:13:10.843Z,100110.38
2023-05-21T00:15:39.636Z,100112.47
2023-05-21T00:18:07.751Z,100110.84
2023-05-21T00:20:37.367Z,100112.59
2023-05-21T00:23:05.811Z,100114.25
2023-05-21T00:25:34.066Z,100117.13
2023-05-21T00:28:02.805Z,100118.16
2023-05-21T00:30:31.180Z,100121.69
2023-05-21T00:33:02.924Z,100122.41
2023-05-21T00:35:31.519Z,100120.63
2023-05-21T00:37:59.850Z,100126.16
2023-05-21T00:40:28.365Z,100114.81
2023-05-21T00:42:57.474Z,100126.06
2023-05-21T00:45:25.707Z,100123.69
2023-05-21T00:47:54.846Z,100132.00
2023-05-21T00:50:23.867Z,100122.00
2023-05-21T00:52:52.101Z,100114.44
2023-05-21T00:55:21.887Z,100118.78
2023-05-21T00:57:50.138Z,100116.41
2023-05-21T01:00:18.251Z,100120.22
2023-05-21T01:02:47.021Z,100119.09
2023-05-21T01:05:15.725Z,100117.44
2023-05-21T01:07:43.857Z,100110.22
2023-05-21T01:10:12.547Z,100117.81
2023-05-21T01:12:44.058Z,100117.66
2023-05-21T01:15:13.110Z,100112.63
2023-05-21T01:17:42.280Z,100114.84
2023-05-21T01:20:11.495Z,100105.75
2023-05-21T01:22:55.296Z,100102.66
2023-05-21T01:25:28.329Z,100101.41
2023-05-21T01:27:56.452Z,100098.75
2023-05-21T01:30:25.682Z,100099.97
2023-05-21T01:33:15.812Z,100100.28
2023-05-21T01:36:01.065Z,100103.22
2023-05-21T01:38:44.034Z,100096.91
2023-05-21T01:41:13.721Z,100094.94
2023-05-21T01:43:46.741Z,100101.25
2023-05-21T01:46:21.850Z,100092.69
2023-05-21T01:48:53.030Z,100101.09
2023-05-21T01:51:21.863Z,100101.09
2023-05-21T01:53:50.415Z,100107.28
2023-05-21T01:56:19.295Z,100104.31
2023-05-21T01:58:50.134Z,100106.00
2023-05-21T02:01:18.291Z,100102.50
2023-05-21T02:03:47.349Z,100101.94
2023-05-21T02:06:16.022Z,100097.41
2023-05-21T02:08:45.648Z,100098.84
2023-05-21T02:11:13.850Z,100101.31
2023-05-21T02:13:42.837Z,100099.94
2023-05-21T02:16:14.968Z,100103.13
2023-05-21T02:18:44.357Z,100100.31
2023-05-21T02:21:12.724Z,100097.78
2023-05-21T02:23:42.099Z,100097.09
2023-05-21T02:26:10.264Z,100094.84
2023-05-21T02:28:38.898Z,100098.06
2023-05-21T02:31:07.300Z,100095.69
2023-05-21T02:33:35.395Z,100093.19
2023-05-21T02:36:04.246Z,100083.34
2023-05-21T02:38:32.921Z,100077.16
2023-05-21T02:41:00.891Z,100082.03
2023-05-21T02:43:29.032Z,100083.13
2023-05-21T02:45:57.777Z,100080.88
2023-05-21T02:48:27.603Z,100084.63
2023-05-21T02:50:55.748Z,100083.91
2023-05-21T02:53:24.200Z,100088.13
2023-05-21T02:55:52.177Z,100087.16
2023-05-21T02:58:21.692Z,100085.19
2023-05-21T03:00:50.082Z,100081.81
2023-05-21T03:03:18.144Z,100081.53
2023-05-21T03:05:46.777Z,100082.25
2023-05-21T03:08:15.116Z,100079.88
2023-05-21T03:10:43.213Z,100085.34
2023-05-21T03:13:12.912Z,100085.38
2023-05-21T03:15:41.476Z,100088.59
2023-05-21T03:18:12.116Z,100085.28
2023-05-21T03:20:43.904Z,100085.56
2023-05-21T03:23:16.268Z,100092.75
2023-05-21T03:25:46.649Z,100093.31
2023-05-21T03:28:15.994Z,100088.72
2023-05-21T03:30:49.870Z,100085.34
2023-05-21T03:33:53.992Z,100084.38
2023-05-21T03:36:29.395Z,100083.28
2023-05-21T03:38:58.400Z,100081.19
2023-05-21T03:41:26.563Z,100079.91
2023-05-21T03:44:01.576Z,100086.78
2023-05-21T03:46:36.397Z,100086.78
2023-05-21T03:49:11.259Z,100080.75
2023-05-21T03:51:40.869Z,100071.50
2023-05-21T03:54:11.876Z,100076.13
2023-05-21T03:56:41.317Z,100076.53
2023-05-21T03:59:10.341Z,100078.50
2023-05-21T04:01:39.227Z,100082.84
2023-05-21T04:04:10.137Z,100080.63
2023-05-21T04:06:38.409Z,100078.66
2023-05-21T04:09:06.476Z,100073.88
2023-05-21T04:11:34.964Z,100072.09
2023-05-21T04:14:03.028Z,100078.22
2023-05-21T04:16:31.319Z,100080.75
2023-05-21T04:18:59.831Z,100075.50
2023-05-21T04:21:28.670Z,100069.22
2023-05-21T04:23:57.659Z,100058.28
2023-05-21T04:26:48.494Z,100054.13
2023-05-21T04:29:18.211Z,100049.63
2023-05-21T04:31:46.794Z,100045.97
2023-05-21T04:34:19.177Z,100037.38
2023-05-21T04:36:48.660Z,100036.75
2023-05-21T04:39:17.244Z,100025.53
2023-05-21T04:41:45.368Z,100018.53
2023-05-21T04:44:15.325Z,100017.38
2023-05-21T04:46:46.309Z,100015.50
2023-05-21T04:49:15.869Z,100007.28
2023-05-21T04:51:44.764Z,100013.59
2023-05-21T04:54:13.095Z,100008.25
2023-05-21T04:56:41.359Z,100010.69
2023-05-21T04:59:09.506Z,100005.25
2023-05-21T05:01:38.632Z,100012.84
2023-05-21T05:04:07.233Z,100006.72
2023-05-21T05:06:35.299Z,100007.63
2023-05-21T05:09:04.676Z,99993.03
2023-05-21T05:11:33.301Z,100000.69
2023-05-21T05:14:01.324Z,99995.72
2023-05-21T05:16:29.976Z,100000.34
2023-05-21T05:18:58.702Z,99996.97
2023-05-21T05:21:27.530Z,99982.06
2023-05-21T05:23:56.021Z,99987.25
2023-05-21T05:26:28.526Z,99984.28
2023-05-21T05:28:57.683Z,99985.00
2023-05-21T05:31:25.845Z,99975.31
2023-05-21T05:33:55.492Z,99966.25
2023-05-21T05:36:26.227Z,99967.00
2023-05-21T05:38:54.352Z,99976.75
2023-05-21T05:41:23.742Z,99962.09
2023-05-21T05:43:52.164Z,99969.09
2023-05-21T05:46:23.488Z,99969.66
2023-05-21T05:48:55.879Z,99972.63
2023-05-21T05:51:26.745Z,99974.28
2023-05-21T05:53:56.228Z,99969.44
2023-05-21T05:56:24.700Z,99960.16
2023-05-21T05:58:53.527Z,99978.81
2023-05-21T06:01:24.991Z,99971.50
2023-05-21T06:03:54.622Z,99976.72
2023-05-21T06:06:30.496Z,99966.66
2023-05-21T06:09:01.215Z,99960.41
2023-05-21T06:11:29.704Z,99963.91
2023-05-21T06:14:01.522Z,99962.81
2023-05-21T06:16:34.399Z,99974.25
2023-05-21T06:19:04.156Z,99973.47
2023-05-21T06:21:33.393Z,99963.13
2023-05-21T06:24:05.007Z,99964.88
2023-05-21T06:26:34.346Z,99955.22
2023-05-21T06:29:06.268Z,99961.25
2023-05-21T06:31:37.550Z,99958.50
2023-05-21T06:34:07.186Z,99964.03
2023-05-21T06:36:35.886Z,99949.31
2023-05-21T06:39:06.101Z,99961.28
2023-05-21T06:41:34.603Z,99943.78
2023-05-21T06:44:06.259Z,99943.69
2023-05-21T06:46:53.323Z,99951.78
2023-05-21T06:49:22.079Z,99947.59
2023-05-21T06:51:50.254Z,99952.69
2023-05-21T06:54:20.042Z,99955.69
2023-05-21T06:56:48.593Z,99962.38
2023-05-21T06:59:17.533Z,99962.59
2023-05-21T07:01:46.541Z,99962.78
2023-05-21T07:04:15.558Z,99948.09
2023-05-21T07:06:45.318Z,99946.72
2023-05-21T07:09:13.523Z,99942.56
2023-05-21T07:11:42.284Z,99946.09
2023-05-21T07:14:11.395Z,99943.34
2023-05-21T07:16:40.110Z,99943.72
2023-05-21T07:19:09.297Z,99946.53
2023-05-21T07:21:37.592Z,99940.66
2023-05-21T07:24:08.645Z,99939.00
2023-05-21T07:26:40.567Z,99941.53
2023-05-21T07:29:09.093Z,99940.00
2023-05-21T07:31:37.314Z,99935.81
2023-05-21T07:34:05.894Z,99933.28
2023-05-21T07:36:34.549Z,99931.19
2023-05-21T07:39:04.417Z,99931.41
2023-05-21T07:41:32.990Z,99929.41
2023-05-21T07:44:03.820Z,99921.97
2023-05-21T07:46:34.543Z,99932.09
2023-05-21T07:49:02.731Z,99930.66
2023-05-21T07:51:31.722Z,99933.19
2023-05-21T07:53:59.932Z,99935.00
2023-05-21T07:56:33.803Z,99940.13
2023-05-21T07:59:02.499Z,99942.84
2023-05-21T08:01:31.378Z,99920.97
2023-05-21T08:04:02.426Z,99929.44
2023-05-21T08:06:31.727Z,99922.81
2023-05-21T08:09:04.256Z,99928.41
2023-05-21T08:11:34.129Z,99931.69
2023-05-21T08:14:02.916Z,99935.16
2023-05-21T08:16:31.653Z,99936.63
2023-05-21T08:19:00.030Z,99918.31
2023-05-21T08:21:28.338Z,99931.66
2023-05-21T08:23:57.587Z,99922.72
2023-05-21T08:26:26.764Z,99926.63
2023-05-21T08:28:54.972Z,99924.19
2023-05-21T08:31:23.873Z,99911.09
2023-05-21T08:33:54.022Z,99926.50
2023-05-21T08:36:32.012Z,99915.84
2023-05-21T08:39:06.957Z,99919.13
2023-05-21T08:41:39.011Z,99910.84
2023-05-21T08:44:12.494Z,99915.16
2023-05-21T08:46:42.964Z,99908.66
2023-05-21T08:49:16.773Z,99915.69
2023-05-21T08:51:47.274Z,99910.16
2023-05-21T08:54:16.266Z,99916.69
2023-05-21T08:56:49.721Z,99910.31
2023-05-21T08:59:21.188Z,99909.63
2023-05-21T09:01:51.233Z,99905.44
2023-05-21T09:04:26.412Z,99919.88
2023-05-21T09:06:58.311Z,99928.53
2023-05-21T09:10:08.380Z,99907.81
2023-05-21T09:12:36.810Z,99903.59
2023-05-21T09:15:06.574Z,99893.56
2023-05-21T09:17:37.023Z,99900.38
2023-05-21T09:20:29.193Z,99890.81
2023-05-21T09:23:17.320Z,99894.31
2023-05-21T09:25:49.662Z,99894.44
2023-05-21T09:28:25.787Z,99892.34
2023-05-21T09:30:55.036Z,99895.78
2023-05-21T09:33:31.802Z,99891.72
2023-05-21T09:36:00.435Z,99898.53
2023-05-21T09:38:29.561Z,99887.41
2023-05-21T09:40:58.899Z,99892.25
2023-05-21T09:43:28.843Z,99910.38
2023-05-21T09:46:01.299Z,99888.47
2023-05-21T09:48:44.020Z,99882.81
2023-05-21T09:51:18.869Z,99899.75
2023-05-21T09:53:58.294Z,99889.44
2023-05-21T09:56:32.660Z,99894.38
2023-05-21T09:59:07.060Z,99892.91
2023-05-21T10:01:36.211Z,99892.09
2023-05-21T10:04:08.464Z,99890.75
2023-05-21T10:06:55.074Z,99914.00
2023-05-21T10:09:24.150Z,99885.53
2023-05-21T10:11:55.018Z,99907.66
2023-05-21T10:14:27.033Z,99901.25
2023-05-21T10:16:56.150Z,99910.63
2023-05-21T10:19:25.895Z,99905.84
2023-05-21T10:21:57.536Z,99900.81
2023-05-21T10:24:27.503Z,99891.81
2023-05-21T10:26:56.107Z,99897.25
2023-05-21T10:29:24.538Z,99887.09
2023-05-21T10:31:53.886Z,99877.25
2023-05-21T10:34:23.507Z,99887.06
2023-05-21T10:36:52.907Z,99883.63
2023-05-21T10:39:22.400Z,99868.00
2023-05-21T10:43:04.327Z,99868.94
2023-05-21T10:45:59.751Z,99870.28
2023-05-21T10:49:08.950Z,99874.38
2023-05-21T10:52:07.700Z,99874.50
2023-05-21T10:55:26.864Z,99866.59
2023-05-21T10:58:35.360Z,99872.78
2023-05-21T11:01:03.954Z,99859.91
2023-05-21T11:03:36.542Z,99864.72
2023-05-21T11:06:07.018Z,99853.50
2023-05-21T11:08:39.059Z,99858.78
2023-05-21T11:11:07.769Z,99855.94
2023-05-21T11:13:49.726Z,99858.13
2023-05-21T11:16:21.559Z,99849.00
2023-05-21T11:18:49.567Z,99854.59
2023-05-21T11:21:21.454Z,99862.50
2023-05-21T11:23:59.129Z,99855.53
2023-05-21T11:26:47.891Z,99852.59
2023-05-21T11:29:16.709Z,99863.84
2023-05-21T11:32:01.405Z,99860.66
2023-05-21T11:34:40.439Z,99845.81
2023-05-21T11:37:18.455Z,99843.28
2023-05-21T11:39:48.504Z,99834.84
2023-05-21T11:42:39.221Z,99852.41
2023-05-21T11:45:08.774Z,99839.25
2023-05-21T11:47:37.357Z,99837.13
2023-05-21T11:50:08.177Z,99818.53
2023-05-21T11:52:36.732Z,99842.19
2023-05-21T11:55:05.883Z,99834.41
2023-05-21T11:57:35.260Z,99835.78
2023-05-21T12:00:14.368Z,99835.16
2023-05-21T12:02:57.437Z,99823.84
2023-05-21T12:05:27.542Z,99821.09
2023-05-21T12:07:56.868Z,99820.06
2023-05-21T12:10:25.209Z,99805.03
2023-05-21T12:12:56.397Z,99830.75
2023-05-21T12:15:27.169Z,99809.25
2023-05-21T12:17:57.252Z,99819.63
2023-05-21T12:20:28.435Z,99815.91
2023-05-21T12:22:59.288Z,99809.63
2023-05-21T12:25:28.156Z,99797.03
2023-05-21T12:27:58.894Z,99800.50
2023-05-21T12:30:28.558Z,99812.88
2023-05-21T12:32:59.672Z,99820.91
2023-05-21T12:35:27.987Z,99819.69
2023-05-21T12:37:56.945Z,99813.28
2023-05-21T12:40:39.729Z,99806.28
2023-05-21T12:43:08.793Z,99808.34
2023-05-21T12:45:39.763Z,99815.69
2023-05-21T12:48:08.945Z,99827.56
2023-05-21T12:50:42.100Z,99814.38
2023-05-21T12:53:13.431Z,99810.81
2023-05-21T12:55:41.797Z,99793.75
2023-05-21T12:58:14.628Z,99822.47
2023-05-21T13:00:44.241Z,99799.69
2023-05-21T13:03:14.612Z,99801.41
2023-05-21T13:05:44.223Z,99791.63
2023-05-21T13:08:15.024Z,99802.09
2023-05-21T13:10:43.525Z,99812.47
2023-05-21T13:13:11.935Z,99804.31
2023-05-21T13:15:40.733Z,99811.25
2023-05-21T13:18:09.316Z,99807.22
2023-05-21T13:20:37.936Z,99807.91
2023-05-21T13:23:07.687Z,99801.59
2023-05-21T13:25:37.815Z,99798.88
2023-05-21T13:28:07.423Z,99805.13
2023-05-21T13:30:35.738Z,99803.34
2023-05-21T13:33:04.446Z,99795.56
2023-05-21T13:35:32.940Z,99791.22
2023-05-21T13:38:01.328Z,99784.28
2023-05-21T13:40:29.733Z,99805.84
2023-05-21T13:42:58.100Z,99800.03
2023-05-21T13:45:29.455Z,99788.72
2023-05-21T13:47:58.901Z,99789.34
2023-05-21T13:50:27.537Z,99779.66
2023-05-21T13:52:55.814Z,99777.91
2023-05-21T13:55:24.062Z,99782.50
2023-05-21T13:57:52.332Z,99791.19
2023-05-21T14:00:20.497Z,99775.78
2023-05-21T14:02:50.252Z,99785.34
2023-05-21T14:05:18.614Z,99789.91
2023-05-21T14:07:48.452Z,99768.75
2023-05-21T14:10:17.424Z,99771.47
2023-05-21T14:12:46.714Z,99762.19
2023-05-21T14:15:15.261Z,99766.00
2023-05-21T14:17:43.798Z,99755.81
2023-05-21T14:20:12.441Z,99764.66
2023-05-21T14:22:40.502Z,99776.16
2023-05-21T14:25:09.525Z,99762.03
2023-05-21T14:27:38.317Z,99770.72
2023-05-21T14:30:08.035Z,99776.16
2023-05-21T14:32:37.625Z,99765.78
2023-05-21T14:35:06.564Z,99763.59
2023-05-21T14:37:34.813Z,99764.34
2023-05-21T14:40:05.703Z,99763.53
2023-05-21T14:42:35.907Z,99759.63
2023-05-21T14:45:18.040Z,99754.91
2023-05-21T14:47:48.134Z,99751.78
2023-05-21T14:50:17.309Z,99747.53
2023-05-21T14:52:45.582Z,99744.78
2023-05-21T14:55:14.095Z,99736.84
2023-05-21T14:57:42.300Z,99737.34
2023-05-21T15:00:13.278Z,99736.41
2023-05-21T15:02:42.849Z,99747.94
2023-05-21T15:05:11.270Z,99750.97
2023-05-21T15:07:40.006Z,99744.69
2023-05-21T15:10:09.323Z,99755.75
2023-05-21T15:12:38.984Z,99758.81
2023-05-21T15:15:09.234Z,99751.69
2023-05-21T15:17:37.940Z,99756.34
2023-05-21T15:20:06.929Z,99738.44
2023-05-21T15:22:35.402Z,99737.75
2023-05-21T15:25:05.020Z,99733.63
2023-05-21T15:27:34.286Z,99743.88
2023-05-21T15:30:03.360Z,99743.75
2023-05-21T15:32:32.238Z,99744.72
2023-05-21T15:35:00.621Z,99735.25
2023-05-21T15:37:32.406Z,99730.88
2023-05-21T15:40:01.699Z,99748.03
2023-05-21T15:42:32.018Z,99737.44
2023-05-21T15:45:00.753Z,99739.28
2023-05-21T15:47:29.189Z,99737.53
2023-05-21T15:49:59.129Z,99739.22
2023-05-21T15:52:28.317Z,99736.38
2023-05-21T15:54:56.755Z,99735.84
2023-05-21T15:57:25.286Z,99734.16
2023-05-21T15:59:53.874Z,99736.13
2023-05-21T16:02:22.270Z,99741.41
2023-05-21T16:04:51.965Z,99742.38
2023-05-21T16:07:20.356Z,99742.03
2023-05-21T16:09:49.458Z,99732.59
2023-05-21T16:12:18.173Z,99739.81
2023-05-21T16:14:50.458Z,99739.03
2023-05-21T16:17:19.948Z,99726.91
2023-05-21T16:19:48.217Z,99726.25
2023-05-21T16:22:17.388Z,99727.78
2023-05-21T16:24:46.559Z,99729.19
2023-05-21T16:27:16.196Z,99734.06
2023-05-21T16:29:45.764Z,99717.38
2023-05-21T16:32:14.809Z,99723.72
2023-05-21T16:34:44.818Z,99720.25
2023-05-21T16:37:13.684Z,99730.13
2023-05-21T16:39:42.285Z,99734.06
2023-05-21T16:42:11.256Z,99718.31
2023-05-21T16:44:41.241Z,99727.56
2023-05-21T16:47:09.491Z,99729.44
2023-05-21T16:49:37.539Z,99724.28
2023-05-21T16:52:06.504Z,99722.00
2023-05-21T16:54:34.754Z,99725.03
2023-05-21T16:57:02.878Z,99728.47
2023-05-21T16:59:32.601Z,99724.72
2023-05-21T17:02:01.070Z,99716.28
2023-05-21T17:04:30.436Z,99720.69
2023-05-21T17:06:59.089Z,99719.56
2023-05-21T17:09:27.284Z,99718.75
2023-05-21T17:12:02.185Z,99719.81
2023-05-21T17:14:34.428Z,99722.44
2023-05-21T17:17:03.822Z,99719.44
2023-05-21T17:19:32.182Z,99719.31
2023-05-21T17:22:00.543Z,99724.19
2023-05-21T17:24:29.857Z,99724.44
2023-05-21T17:26:58.425Z,99721.63
2023-05-21T17:29:27.297Z,99730.16
2023-05-21T17:31:55.985Z,99730.03
2023-05-21T17:34:27.077Z,99727.56
2023-05-21T17:36:58.258Z,99734.06
2023-05-21T17:39:29.556Z,99735.94
2023-05-21T17:41:58.407Z,99746.53
2023-05-21T17:44:26.998Z,99744.16
2023-05-21T17:46:58.174Z,99738.72
2023-05-21T17:49:26.608Z,99742.91
2023-05-21T17:51:55.450Z,99749.47
2023-05-21T17:54:24.729Z,99761.59
2023-05-21T17:56:53.429Z,99761.31
2023-05-21T17:59:22.524Z,99759.50
2023-05-21T18:01:51.149Z,99759.59
2023-05-21T18:04:20.650Z,99765.06
2023-05-21T18:06:49.783Z,99773.56
2023-05-21T18:09:18.183Z,99780.78
2023-05-21T18:11:46.475Z,99783.31
2023-05-21T18:14:15.002Z,99792.38
2023-05-21T18:16:43.405Z,99799.44
2023-05-21T18:19:11.829Z,99797.56
2023-05-21T18:21:40.577Z,99806.53
2023-05-21T18:24:09.243Z,99799.75
2023-05-21T18:26:37.677Z,99802.13
2023-05-21T18:29:06.297Z,99791.00
2023-05-21T18:31:34.498Z,99802.69
2023-05-21T18:34:02.707Z,99795.91
2023-05-21T18:36:38.579Z,99794.75
2023-05-21T18:39:08.086Z,99798.56
2023-05-21T18:41:37.573Z,99800.19
2023-05-21T18:44:06.624Z,99799.47
2023-05-21T18:46:35.331Z,99801.31
2023-05-21T18:49:05.185Z,99800.25
2023-05-21T18:51:33.716Z,99798.50
2023-05-21T18:54:01.935Z,99802.50
2023-05-21T18:56:30.311Z,99799.22
2023-05-21T18:58:59.082Z,99797.53
2023-05-21T19:01:27.339Z,99806.59
2023-05-21T19:03:56.735Z,99799.28
2023-05-21T19:06:26.625Z,99801.22
2023-05-21T19:08:55.386Z,99797.63
2023-05-21T19:11:24.899Z,99800.00
2023-05-21T19:13:53.454Z,99808.44
2023-05-21T19:16:22.362Z,99799.63
2023-05-21T19:18:51.074Z,99796.97
2023-05-21T19:21:19.893Z,99803.22
2023-05-21T19:23:52.541Z,99805.13
2023-05-21T19:26:23.053Z,99800.63
2023-05-21T19:28:53.781Z,99798.66
2023-05-21T19:31:23.719Z,99798.31
2023-05-21T19:33:53.094Z,99802.09
2023-05-21T19:36:22.301Z,99796.72
2023-05-21T19:38:51.156Z,99795.81
2023-05-21T19:41:20.125Z,99799.81
2023-05-21T19:43:48.798Z,99796.66
2023-05-21T19:46:20.298Z,99796.84
2023-05-21T19:48:51.288Z,99783.59
2023-05-21T19:51:20.066Z,99779.41
2023-05-21T19:53:48.671Z,99777.09
2023-05-21T19:56:17.219Z,99780.44
2023-05-21T19:58:48.145Z,99781.41
2023-05-21T20:01:18.109Z,99777.41
2023-05-21T20:03:46.759Z,99776.41
2023-05-21T20:06:21.020Z,99768.03
2023-05-21T20:08:49.381Z,99769.34
2023-05-21T20:11:17.742Z,99765.00
2023-05-21T20:13:50.658Z,99770.72
2023-05-21T20:16:20.353Z,99768.22
2023-05-21T20:18:49.697Z,99766.41
2023-05-21T20:21:19.222Z,99772.13
2023-05-21T20:23:47.699Z,99777.31
2023-05-21T20:26:17.449Z,99773.78
2023-05-21T20:28:46.448Z,99784.88
2023-05-21T20:31:15.339Z,99784.38
2023-05-21T20:33:43.770Z,99782.25
2023-05-21T20:36:13.632Z,99786.25
2023-05-21T20:38:42.377Z,99784.91
2023-05-21T20:41:10.997Z,99785.28
2023-05-21T20:43:39.808Z,99790.97
2023-05-21T20:46:08.263Z,99799.72
2023-05-21T20:48:38.012Z,99794.19
2023-05-21T20:51:07.062Z,99795.38
2023-05-21T20:53:36.279Z,99805.78
2023-05-21T20:56:08.397Z,99805.97
2023-05-21T20:58:37.150Z,99808.13
2023-05-21T21:01:07.808Z,99814.16
2023-05-21T21:03:37.266Z,99816.81
2023-05-21T21:06:06.558Z,99814.81
2023-05-21T21:08:34.928Z,99811.56
2023-05-21T21:11:03.254Z,99812.75
2023-05-21T21:13:31.872Z,99809.38
2023-05-21T21:16:00.220Z,99806.66
2023-05-21T21:18:28.888Z,99802.31
2023-05-21T21:20:57.126Z,99803.63
2023-05-21T21:23:28.155Z,99810.28
2023-05-21T21:25:57.459Z,99820.97
2023-05-21T21:28:26.152Z,99827.84
2023-05-21T21:30:55.218Z,99826.13
2023-05-21T21:33:24.779Z,99824.03
2023-05-21T21:35:54.208Z,99833.19
2023-05-21T21:38:22.810Z,99831.50
2023-05-21T21:40:51.696Z,99834.94
2023-05-21T21:43:19.988Z,99829.81
2023-05-21T21:45:48.199Z,99832.88
2023-05-21T21:48:16.966Z,99833.41
2023-05-21T21:50:45.380Z,99836.72
2023-05-21T21:53:14.196Z,99845.13
2023-05-21T21:55:42.546Z,99842.06
2023-05-21T21:58:10.690Z,99846.50
2023-05-21T22:00:40.053Z,99839.88
2023-05-21T22:03:09.183Z,99841.00
2023-05-21T22:05:38.831Z,99837.78
2023-05-21T22:08:07.089Z,99830.63
2023-05-21T22:10:38.304Z,99841.44
2023-05-21T22:13:06.868Z,99841.53
2023-05-21T22:15:35.691Z,99845.63
2023-05-21T22:18:04.292Z,99845.53
2023-05-21T22:20:35.252Z,99846.66
2023-05-21T22:23:03.588Z,99850.38
2023-05-21T22:25:31.659Z,99850.81
2023-05-21T22:28:00.127Z,99849.53
2023-05-21T22:30:28.610Z,99844.50
2023-05-21T22:32:59.869Z,99852.94
2023-05-21T22:35:27.923Z,99848.91
2023-05-21T22:37:56.406Z,99849.31
2023-05-21T22:40:24.968Z,99844.25
2023-05-21T22:42:53.158Z,99839.03
2023-05-21T22:45:22.096Z,99842.66
2023-05-21T22:47:52.065Z,99841.38
2023-05-21T22:50:20.592Z,99839.38
2023-05-21T22:52:49.944Z,99839.91
2023-05-21T22:55:18.159Z,99846.25
2023-05-21T22:57:46.370Z,99839.28
2023-05-21T23:00:14.897Z,99837.06
2023-05-21T23:02:43.042Z,99837.34
2023-05-21T23:05:11.261Z,99835.28
2023-05-21T23:07:39.972Z,99836.56
2023-05-21T23:10:09.093Z,99830.66
2023-05-21T23:12:37.639Z,99830.97
2023-05-21T23:15:07.652Z,99833.50
2023-05-21T23:17:36.466Z,99837.59
2023-05-21T23:20:06.282Z,99831.00
2023-05-21T23:22:36.147Z,99832.00
2023-05-21T23:25:05.374Z,99832.41
2023-05-21T23:27:33.387Z,99823.19
2023-05-21T23:30:01.868Z,99819.81
2023-05-21T23:32:29.992Z,99822.06
2023-05-21T23:34:58.413Z,99816.88
2023-05-21T23:37:26.918Z,99815.91
2023-05-21T23:39:55.039Z,99814.91
2023-05-21T23:42:23.298Z,99822.88
2023-05-21T23:44:51.608Z,99819.53
2023-05-21T23:47:19.672Z,99812.78
2023-05-21T23:49:47.932Z,99808.44
2023-05-21T23:52:18.938Z,99812.31
2023-05-21T23:54:47.235Z,99811.75
2023-05-21T23:57:15.300Z,99817.66
2023-05-21T23:59:43.920Z,99818.88
